sensor_id;sensor_type;location;lat;lon;timestamp;temperature;humidity
19864;DHT22;10094;48.820;9.226;2024-02-23T01:26:39;7.80;99.90
19864;DHT22;10094;48.820;9.226;2024-02-23T01:33:25;7.60;99.90
19864;DHT22;10094;48.820;9.226;2024-02-23T01:40:08;7.90;99.90
19864;DHT22;10094;48.820;9.226;2024-02-23T01:46:50;8.00;99.90
19864;DHT22;10094;48.820;9.226;2024-02-23T01:53:33;8.10;99.90
19864;DHT22;10094;48.820;9.226;2024-02-23T02:00:17;8.20;99.90
19864;DHT22;10094;48.820;9.226;2024-02-23T02:07:06;8.20;99.90
19864;DHT22;10094;48.820;9.226;2024-02-23T02:13:48;8.30;99.90
19864;DHT22;10094;48.820;9.226;2024-02-23T02:20:33;8.30;99.90
19864;DHT22;10094;48.820;9.226;2024-02-23T02:27:16;8.50;99.90
19864;DHT22;10094;48.820;9.226;2024-02-23T02:33:58;8.60;99.90
19864;DHT22;10094;48.820;9.226;2024-02-23T02:40:41;8.70;99.90
19864;DHT22;10094;48.820;9.226;2024-02-23T02:47:23;8.60;99.90
19864;DHT22;10094;48.820;9.226;2024-02-23T02:54:06;8.60;99.90
19864;DHT22;10094;48.820;9.226;2024-02-23T03:00:48;8.40;99.90
19864;DHT22;10094;48.820;9.226;2024-02-23T03:07:31;8.40;99.90
19864;DHT22;10094;48.820;9.226;2024-02-23T03:14:13;8.20;99.90
19864;DHT22;10094;48.820;9.226;2024-02-23T03:20:55;8.20;99.90
19864;DHT22;10094;48.820;9.226;2024-02-23T03:27:38;8.10;99.90
19864;DHT22;10094;48.820;9.226;2024-02-23T03:34:21;8.10;99.90
19864;DHT22;10094;48.820;9.226;2024-02-23T03:41:03;8.00;99.90
19864;DHT22;10094;48.820;9.226;2024-02-23T03:47:46;7.90;99.90
19864;DHT22;10094;48.820;9.226;2024-02-23T03:54:29;7.90;99.90
19864;DHT22;10094;48.820;9.226;2024-02-23T04:01:11;7.90;99.90
19864;DHT22;10094;48.820;9.226;2024-02-23T04:07:53;8.00;99.90
19864;DHT22;10094;48.820;9.226;2024-02-23T04:14:36;7.90;99.90
19864;DHT22;10094;48.820;9.226;2024-02-23T04:21:19;7.80;99.90
19864;DHT22;10094;48.820;9.226;2024-02-23T04:28:01;7.80;99.90
19864;DHT22;10094;48.820;9.226;2024-02-23T04:34:44;7.70;99.90
19864;DHT22;10094;48.820;9.226;2024-02-23T04:41:26;7.70;99.90
19864;DHT22;10094;48.820;9.226;2024-02-23T04:48:09;7.70;99.90
19864;DHT22;10094;48.820;9.226;2024-02-23T04:54:52;7.60;99.90
19864;DHT22;10094;48.820;9.226;2024-02-23T05:01:37;7.60;99.90
19864;DHT22;10094;48.820;9.226;2024-02-23T05:08:20;7.60;99.90
19864;DHT22;10094;48.820;9.226;2024-02-23T05:15:03;7.50;99.90
19864;DHT22;10094;48.820;9.226;2024-02-23T05:21:46;7.50;99.90
19864;DHT22;10094;48.820;9.226;2024-02-23T05:35:12;7.50;99.90
19864;DHT22;10094;48.820;9.226;2024-02-23T05:41:54;7.30;99.90
19864;DHT22;10094;48.820;9.226;2024-02-23T05:48:37;7.30;99.90
19864;DHT22;10094;48.820;9.226;2024-02-23T05:55:20;7.30;99.90
19864;DHT22;10094;48.820;9.226;2024-02-23T06:35:37;7.30;99.90
19864;DHT22;10094;48.820;9.226;2024-02-23T06:42:21;6.50;99.90
19864;DHT22;10094;48.820;9.226;2024-02-23T06:49:03;6.60;99.90
19864;DHT22;10094;48.820;9.226;2024-02-23T06:55:47;6.70;99.90
19864;DHT22;10094;48.820;9.226;2024-02-23T07:02:29;6.90;99.90
19864;DHT22;10094;48.820;9.226;2024-02-23T07:09:14;7.00;99.90
19864;DHT22;10094;48.820;9.226;2024-02-23T07:15:56;6.90;99.90
19864;DHT22;10094;48.820;9.226;2024-02-23T07:22:45;7.00;99.90
19864;DHT22;10094;48.820;9.226;2024-02-23T07:29:28;7.10;99.90
19864;DHT22;10094;48.820;9.226;2024-02-23T07:36:15;7.00;99.90
19864;DHT22;10094;48.820;9.226;2024-02-23T07:42:57;7.20;99.90
19864;DHT22;10094;48.820;9.226;2024-02-23T08:30:01;7.30;99.90
19864;DHT22;10094;48.820;9.226;2024-02-23T08:36:45;8.20;99.90
19864;DHT22;10094;48.820;9.226;2024-02-23T08:43:28;8.40;99.90
19864;DHT22;10094;48.820;9.226;2024-02-23T08:50:11;8.30;99.90
19864;DHT22;10094;48.820;9.226;2024-02-23T08:56:54;8.30;99.90
19864;DHT22;10094;48.820;9.226;2024-02-23T09:03:37;8.40;99.90
19864;DHT22;10094;48.820;9.226;2024-02-23T09:10:20;8.40;99.90
19864;DHT22;10094;48.820;9.226;2024-02-23T09:17:03;8.40;99.90
19864;DHT22;10094;48.820;9.226;2024-02-23T09:23:47;8.20;99.90
19864;DHT22;10094;48.820;9.226;2024-02-23T09:30:39;8.70;99.90
19864;DHT22;10094;48.820;9.226;2024-02-23T09:37:22;8.70;99.90
19864;DHT22;10094;48.820;9.226;2024-02-23T09:44:08;8.60;99.90
19864;DHT22;10094;48.820;9.226;2024-02-23T09:50:55;8.90;99.10
19864;DHT22;10094;48.820;9.226;2024-02-23T09:57:40;9.60;98.00
19864;DHT22;10094;48.820;9.226;2024-02-23T10:11:09;10.50;95.80
19864;DHT22;10094;48.820;9.226;2024-02-23T10:17:52;10.90;93.50
19864;DHT22;10094;48.820;9.226;2024-02-23T10:58:23;9.70;94.10
19864;DHT22;10094;48.820;9.226;2024-02-23T11:05:07;9.40;95.00
19864;DHT22;10094;48.820;9.226;2024-02-23T11:11:59;9.70;94.90
19864;DHT22;10094;48.820;9.226;2024-02-23T11:18:47;10.10;94.00
19864;DHT22;10094;48.820;9.226;2024-02-23T11:25:31;10.10;93.10
19864;DHT22;10094;48.820;9.226;2024-02-23T11:32:18;9.70;94.10
19864;DHT22;10094;48.820;9.226;2024-02-23T11:39:10;9.90;94.10
19864;DHT22;10094;48.820;9.226;2024-02-23T11:45:58;9.90;93.90
19864;DHT22;10094;48.820;9.226;2024-02-23T11:52:41;10.20;93.30
19864;DHT22;10094;48.820;9.226;2024-02-23T11:59:25;10.30;93.60
19864;DHT22;10094;48.820;9.226;2024-02-23T12:06:08;10.30;92.70
19864;DHT22;10094;48.820;9.226;2024-02-23T12:12:59;10.10;92.40
19864;DHT22;10094;48.820;9.226;2024-02-23T12:26:29;10.00;92.90
19864;DHT22;10094;48.820;9.226;2024-02-23T12:33:18;9.70;92.70
19864;DHT22;10094;48.820;9.226;2024-02-23T12:40:19;10.00;93.00
19864;DHT22;10094;48.820;9.226;2024-02-23T12:47:16;10.20;92.90
19864;DHT22;10094;48.820;9.226;2024-02-23T12:54:00;10.40;92.90
19864;DHT22;10094;48.820;9.226;2024-02-23T13:00:48;10.40;91.80
19864;DHT22;10094;48.820;9.226;2024-02-23T13:07:38;10.30;91.60
19864;DHT22;10094;48.820;9.226;2024-02-23T13:14:26;10.00;92.10
19864;DHT22;10094;48.820;9.226;2024-02-23T13:21:14;10.10;93.70
19864;DHT22;10094;48.820;9.226;2024-02-23T13:27:57;10.20;93.00
19864;DHT22;10094;48.820;9.226;2024-02-23T13:34:45;10.40;92.80
19864;DHT22;10094;48.820;9.226;2024-02-23T13:41:29;10.20;93.00
19864;DHT22;10094;48.820;9.226;2024-02-23T13:48:14;10.20;93.50
19864;DHT22;10094;48.820;9.226;2024-02-23T13:55:00;10.40;93.50
19864;DHT22;10094;48.820;9.226;2024-02-23T14:01:42;10.20;94.20
19864;DHT22;10094;48.820;9.226;2024-02-23T14:08:27;10.30;93.60
19864;DHT22;10094;48.820;9.226;2024-02-23T14:15:10;10.70;93.70
19864;DHT22;10094;48.820;9.226;2024-02-23T14:21:53;10.40;99.60
19864;DHT22;10094;48.820;9.226;2024-02-23T14:28:36;10.40;94.20
19864;DHT22;10094;48.820;9.226;2024-02-23T14:35:19;10.50;93.90
19864;DHT22;10094;48.820;9.226;2024-02-23T14:42:03;10.30;94.00
19864;DHT22;10094;48.820;9.226;2024-02-23T14:48:47;10.30;93.60
19864;DHT22;10094;48.820;9.226;2024-02-23T14:55:31;10.40;93.90
19864;DHT22;10094;48.820;9.226;2024-02-23T15:02:19;10.30;93.90
19864;DHT22;10094;48.820;9.226;2024-02-23T15:09:03;10.60;93.90
19864;DHT22;10094;48.820;9.226;2024-02-23T15:15:45;10.50;93.60
19864;DHT22;10094;48.820;9.226;2024-02-23T15:22:29;10.40;94.00
19864;DHT22;10094;48.820;9.226;2024-02-23T15:29:12;10.30;93.90
19864;DHT22;10094;48.820;9.226;2024-02-23T15:35:55;10.10;94.20
19864;DHT22;10094;48.820;9.226;2024-02-23T15:42:38;10.00;94.40
19864;DHT22;10094;48.820;9.226;2024-02-23T15:49:21;10.20;93.90
19864;DHT22;10094;48.820;9.226;2024-02-23T15:56:25;10.10;94.40
19864;DHT22;10094;48.820;9.226;2024-02-23T16:03:07;10.10;94.60
19864;DHT22;10094;48.820;9.226;2024-02-23T16:09:50;10.20;95.20
19864;DHT22;10094;48.820;9.226;2024-02-23T16:16:33;10.20;96.80
19864;DHT22;10094;48.820;9.226;2024-02-23T16:23:16;10.30;97.00
19864;DHT22;10094;48.820;9.226;2024-02-23T16:29:59;10.40;96.60
19864;DHT22;10094;48.820;9.226;2024-02-23T16:43:27;10.10;95.50
19864;DHT22;10094;48.820;9.226;2024-02-23T16:50:10;9.90;98.60
19864;DHT22;10094;48.820;9.226;2024-02-23T17:03:35;9.30;99.90
19864;DHT22;10094;48.820;9.226;2024-02-23T17:10:18;9.20;99.90
19864;DHT22;10094;48.820;9.226;2024-02-23T17:17:01;9.10;99.90
19864;DHT22;10094;48.820;9.226;2024-02-23T17:23:46;9.10;99.90
19864;DHT22;10094;48.820;9.226;2024-02-23T17:30:29;8.90;99.90
19864;DHT22;10094;48.820;9.226;2024-02-23T17:37:12;8.90;99.90
19864;DHT22;10094;48.820;9.226;2024-02-23T17:43:55;8.90;99.90
19864;DHT22;10094;48.820;9.226;2024-02-23T17:50:37;8.90;99.90
19864;DHT22;10094;48.820;9.226;2024-02-23T18:10:47;8.80;99.90
19864;DHT22;10094;48.820;9.226;2024-02-23T18:17:29;8.60;99.90
19864;DHT22;10094;48.820;9.226;2024-02-23T18:24:12;8.60;99.90
